sensor_id;sensor_type;location;lat;lon;timestamp;temperature;humidity
37972;DHT22;23794;48.234;8.344;2022-07-29T00:01:43;17.00;99.90
37972;DHT22;23794;48.234;8.344;2022-07-29T00:04:10;17.00;99.90
37972;DHT22;23794;48.234;8.344;2022-07-29T00:06:37;17.00;99.90
37972;DHT22;23794;48.234;8.344;2022-07-29T00:09:04;16.90;99.90
37972;DHT22;23794;48.234;8.344;2022-07-29T00:11:31;16.80;99.90
37972;DHT22;23794;48.234;8.344;2022-07-29T00:13:58;16.80;99.90
37972;DHT22;23794;48.234;8.344;2022-07-29T00:16:24;16.80;99.90
37972;DHT22;23794;48.234;8.344;2022-07-29T00:18:51;16.80;99.90
37972;DHT22;23794;48.234;8.344;2022-07-29T00:21:18;16.80;99.90
37972;DHT22;23794;48.234;8.344;2022-07-29T00:23:45;16.80;99.90
37972;DHT22;23794;48.234;8.344;2022-07-29T00:26:12;16.80;99.90
37972;DHT22;23794;48.234;8.344;2022-07-29T00:28:39;16.70;99.90
37972;DHT22;23794;48.234;8.344;2022-07-29T00:31:05;16.70;99.90
37972;DHT22;23794;48.234;8.344;2022-07-29T00:33:32;16.70;99.90
37972;DHT22;23794;48.234;8.344;2022-07-29T00:35:59;16.70;99.90
37972;DHT22;23794;48.234;8.344;2022-07-29T00:38:26;16.70;99.90
37972;DHT22;23794;48.234;8.344;2022-07-29T00:40:53;16.60;99.90
37972;DHT22;23794;48.234;8.344;2022-07-29T00:43:20;16.60;99.90
37972;DHT22;23794;48.234;8.344;2022-07-29T00:45:46;16.60;99.90
37972;DHT22;23794;48.234;8.344;2022-07-29T00:48:13;16.60;99.90
37972;DHT22;23794;48.234;8.344;2022-07-29T00:50:41;16.50;99.90
37972;DHT22;23794;48.234;8.344;2022-07-29T00:53:08;16.50;99.90
37972;DHT22;23794;48.234;8.344;2022-07-29T00:55:35;16.40;99.90
37972;DHT22;23794;48.234;8.344;2022-07-29T00:58:02;16.50;99.90
37972;DHT22;23794;48.234;8.344;2022-07-29T01:00:30;16.40;99.90
37972;DHT22;23794;48.234;8.344;2022-07-29T01:02:57;16.40;99.90
37972;DHT22;23794;48.234;8.344;2022-07-29T01:05:24;16.40;99.90
37972;DHT22;23794;48.234;8.344;2022-07-29T01:08:13;16.40;99.90
37972;DHT22;23794;48.234;8.344;2022-07-29T01:10:41;16.30;99.90
37972;DHT22;23794;48.234;8.344;2022-07-29T01:13:09;16.20;99.90
37972;DHT22;23794;48.234;8.344;2022-07-29T01:15:39;16.20;99.90
37972;DHT22;23794;48.234;8.344;2022-07-29T01:18:28;16.20;99.90
37972;DHT22;23794;48.234;8.344;2022-07-29T01:34:27;16.00;99.90
37972;DHT22;23794;48.234;8.344;2022-07-29T01:39:50;16.00;99.90
37972;DHT22;23794;48.234;8.344;2022-07-29T01:42:20;15.90;99.90
37972;DHT22;23794;48.234;8.344;2022-07-29T01:44:52;16.00;99.90
37972;DHT22;23794;48.234;8.344;2022-07-29T01:47:20;15.90;99.90
37972;DHT22;23794;48.234;8.344;2022-07-29T01:49:50;15.80;99.90
37972;DHT22;23794;48.234;8.344;2022-07-29T01:52:29;15.80;99.90
37972;DHT22;23794;48.234;8.344;2022-07-29T01:54:58;15.80;99.90
37972;DHT22;23794;48.234;8.344;2022-07-29T01:57:29;15.80;99.90
37972;DHT22;23794;48.234;8.344;2022-07-29T01:59:58;15.80;99.90
37972;DHT22;23794;48.234;8.344;2022-07-29T02:02:26;15.70;99.90
37972;DHT22;23794;48.234;8.344;2022-07-29T02:04:54;15.60;99.90
37972;DHT22;23794;48.234;8.344;2022-07-29T02:07:22;15.60;99.90
37972;DHT22;23794;48.234;8.344;2022-07-29T02:09:50;15.60;99.90
37972;DHT22;23794;48.234;8.344;2022-07-29T02:12:17;15.60;99.90
37972;DHT22;23794;48.234;8.344;2022-07-29T02:14:47;15.70;99.90
37972;DHT22;23794;48.234;8.344;2022-07-29T02:17:16;15.60;99.90
37972;DHT22;23794;48.234;8.344;2022-07-29T02:19:44;15.60;99.90
37972;DHT22;23794;48.234;8.344;2022-07-29T02:22:12;15.50;99.90
37972;DHT22;23794;48.234;8.344;2022-07-29T02:24:39;15.50;99.90
37972;DHT22;23794;48.234;8.344;2022-07-29T02:27:07;15.50;99.90
37972;DHT22;23794;48.234;8.344;2022-07-29T02:29:34;15.50;99.90
37972;DHT22;23794;48.234;8.344;2022-07-29T02:32:02;15.50;99.90
37972;DHT22;23794;48.234;8.344;2022-07-29T02:34:29;15.50;99.90
37972;DHT22;23794;48.234;8.344;2022-07-29T02:36:57;15.50;99.90
37972;DHT22;23794;48.234;8.344;2022-07-29T02:39:25;15.50;99.90
37972;DHT22;23794;48.234;8.344;2022-07-29T02:41:58;15.40;99.90
37972;DHT22;23794;48.234;8.344;2022-07-29T02:44:26;15.40;99.90
37972;DHT22;23794;48.234;8.344;2022-07-29T02:49:37;15.30;99.90
37972;DHT22;23794;48.234;8.344;2022-07-29T02:52:06;15.30;99.90
37972;DHT22;23794;48.234;8.344;2022-07-29T02:57:08;15.30;99.90
37972;DHT22;23794;48.234;8.344;2022-07-29T02:59:36;15.20;99.90
37972;DHT22;23794;48.234;8.344;2022-07-29T03:02:03;15.20;99.90
37972;DHT22;23794;48.234;8.344;2022-07-29T03:04:31;15.20;99.90
37972;DHT22;23794;48.234;8.344;2022-07-29T03:06:59;15.20;99.90
37972;DHT22;23794;48.234;8.344;2022-07-29T03:09:26;15.20;99.90
37972;DHT22;23794;48.234;8.344;2022-07-29T03:11:54;15.10;99.90
37972;DHT22;23794;48.234;8.344;2022-07-29T03:14:22;15.20;99.90
37972;DHT22;23794;48.234;8.344;2022-07-29T03:16:50;15.10;99.90
37972;DHT22;23794;48.234;8.344;2022-07-29T03:19:18;15.00;99.90
37972;DHT22;23794;48.234;8.344;2022-07-29T03:21:45;14.90;99.90
37972;DHT22;23794;48.234;8.344;2022-07-29T03:24:31;15.00;99.90
37972;DHT22;23794;48.234;8.344;2022-07-29T03:26:59;15.00;99.90
37972;DHT22;23794;48.234;8.344;2022-07-29T03:29:26;15.00;99.90
37972;DHT22;23794;48.234;8.344;2022-07-29T03:32:01;15.00;99.90
37972;DHT22;23794;48.234;8.344;2022-07-29T03:34:29;14.90;99.90
37972;DHT22;23794;48.234;8.344;2022-07-29T03:36:56;14.80;99.90
37972;DHT22;23794;48.234;8.344;2022-07-29T03:39:25;14.80;99.90
37972;DHT22;23794;48.234;8.344;2022-07-29T03:41:53;14.80;99.90
37972;DHT22;23794;48.234;8.344;2022-07-29T03:44:21;14.90;99.90
37972;DHT22;23794;48.234;8.344;2022-07-29T03:46:49;14.80;99.90
37972;DHT22;23794;48.234;8.344;2022-07-29T03:49:17;14.70;99.90
37972;DHT22;23794;48.234;8.344;2022-07-29T03:51:45;14.70;99.90
37972;DHT22;23794;48.234;8.344;2022-07-29T03:54:12;14.70;99.90
37972;DHT22;23794;48.234;8.344;2022-07-29T03:56:40;14.80;99.90
37972;DHT22;23794;48.234;8.344;2022-07-29T03:59:07;14.60;99.90
37972;DHT22;23794;48.234;8.344;2022-07-29T04:01:34;14.60;99.90
37972;DHT22;23794;48.234;8.344;2022-07-29T04:04:01;14.60;99.90
37972;DHT22;23794;48.234;8.344;2022-07-29T04:06:28;14.70;99.90
37972;DHT22;23794;48.234;8.344;2022-07-29T04:08:55;14.70;99.90
37972;DHT22;23794;48.234;8.344;2022-07-29T04:11:22;14.70;99.90
37972;DHT22;23794;48.234;8.344;2022-07-29T04:13:49;14.70;99.90
37972;DHT22;23794;48.234;8.344;2022-07-29T04:16:15;14.70;99.90
37972;DHT22;23794;48.234;8.344;2022-07-29T04:18:42;14.80;99.90
37972;DHT22;23794;48.234;8.344;2022-07-29T04:21:09;15.00;99.90
37972;DHT22;23794;48.234;8.344;2022-07-29T04:23:36;15.10;99.90
37972;DHT22;23794;48.234;8.344;2022-07-29T04:26:18;15.00;99.90
37972;DHT22;23794;48.234;8.344;2022-07-29T04:28:45;15.00;99.90
37972;DHT22;23794;48.234;8.344;2022-07-29T04:31:12;14.90;99.90
37972;DHT22;23794;48.234;8.344;2022-07-29T04:33:39;14.90;99.90
37972;DHT22;23794;48.234;8.344;2022-07-29T04:36:06;15.00;99.90
37972;DHT22;23794;48.234;8.344;2022-07-29T04:38:53;15.10;99.90
37972;DHT22;23794;48.234;8.344;2022-07-29T04:41:20;15.20;99.90
37972;DHT22;23794;48.234;8.344;2022-07-29T04:43:47;15.30;99.90
37972;DHT22;23794;48.234;8.344;2022-07-29T04:46:14;15.50;99.90
37972;DHT22;23794;48.234;8.344;2022-07-29T04:48:41;15.60;99.90
37972;DHT22;23794;48.234;8.344;2022-07-29T04:51:08;15.60;99.90
37972;DHT22;23794;48.234;8.344;2022-07-29T04:53:35;15.70;99.90
37972;DHT22;23794;48.234;8.344;2022-07-29T04:56:02;15.70;99.90
37972;DHT22;23794;48.234;8.344;2022-07-29T04:58:29;15.80;99.90
37972;DHT22;23794;48.234;8.344;2022-07-29T05:00:55;15.80;99.90
37972;DHT22;23794;48.234;8.344;2022-07-29T05:03:22;15.80;99.90
37972;DHT22;23794;48.234;8.344;2022-07-29T05:05:49;15.90;99.90
37972;DHT22;23794;48.234;8.344;2022-07-29T05:08:16;15.90;99.90
37972;DHT22;23794;48.234;8.344;2022-07-29T05:10:43;15.90;99.90
37972;DHT22;23794;48.234;8.344;2022-07-29T05:13:10;15.90;99.90
37972;DHT22;23794;48.234;8.344;2022-07-29T05:15:36;15.90;99.90
37972;DHT22;23794;48.234;8.344;2022-07-29T05:18:04;16.00;99.90
37972;DHT22;23794;48.234;8.344;2022-07-29T05:20:31;16.10;99.90
37972;DHT22;23794;48.234;8.344;2022-07-29T05:23:00;16.20;99.90
37972;DHT22;23794;48.234;8.344;2022-07-29T05:25:27;16.20;99.90
37972;DHT22;23794;48.234;8.344;2022-07-29T05:28:10;16.30;99.90
37972;DHT22;23794;48.234;8.344;2022-07-29T05:30:37;16.30;99.90
37972;DHT22;23794;48.234;8.344;2022-07-29T05:33:04;16.40;99.90
37972;DHT22;23794;48.234;8.344;2022-07-29T05:35:31;16.40;99.90
37972;DHT22;23794;48.234;8.344;2022-07-29T05:37:57;16.50;99.90
37972;DHT22;23794;48.234;8.344;2022-07-29T05:40:24;16.40;99.90
37972;DHT22;23794;48.234;8.344;2022-07-29T05:42:51;16.50;99.90
37972;DHT22;23794;48.234;8.344;2022-07-29T05:45:31;16.60;99.90
37972;DHT22;23794;48.234;8.344;2022-07-29T05:48:15;16.70;99.90
37972;DHT22;23794;48.234;8.344;2022-07-29T05:50:42;16.90;99.90
37972;DHT22;23794;48.234;8.344;2022-07-29T05:53:13;17.00;99.90
37972;DHT22;23794;48.234;8.344;2022-07-29T05:55:46;17.20;99.90
37972;DHT22;23794;48.234;8.344;2022-07-29T05:58:14;17.20;99.90
37972;DHT22;23794;48.234;8.344;2022-07-29T06:00:40;17.20;99.90
37972;DHT22;23794;48.234;8.344;2022-07-29T06:03:07;17.10;99.90
37972;DHT22;23794;48.234;8.344;2022-07-29T06:05:34;17.00;99.90
37972;DHT22;23794;48.234;8.344;2022-07-29T06:08:02;17.00;99.90
37972;DHT22;23794;48.234;8.344;2022-07-29T06:10:28;17.00;99.90
37972;DHT22;23794;48.234;8.344;2022-07-29T06:12:56;17.00;99.90
37972;DHT22;23794;48.234;8.344;2022-07-29T06:15:24;17.10;99.90
37972;DHT22;23794;48.234;8.344;2022-07-29T06:17:51;17.20;99.90
37972;DHT22;23794;48.234;8.344;2022-07-29T06:20:29;17.30;99.90
37972;DHT22;23794;48.234;8.344;2022-07-29T06:23:00;17.40;99.90
37972;DHT22;23794;48.234;8.344;2022-07-29T06:25:27;17.50;99.90
37972;DHT22;23794;48.234;8.344;2022-07-29T06:28:01;17.50;99.90
37972;DHT22;23794;48.234;8.344;2022-07-29T06:30:28;17.70;99.90
37972;DHT22;23794;48.234;8.344;2022-07-29T06:32:56;17.80;99.90
37972;DHT22;23794;48.234;8.344;2022-07-29T06:35:23;17.90;99.90
37972;DHT22;23794;48.234;8.344;2022-07-29T06:38:08;18.00;99.90
37972;DHT22;23794;48.234;8.344;2022-07-29T06:40:55;17.90;99.90
37972;DHT22;23794;48.234;8.344;2022-07-29T06:43:33;17.90;99.90
37972;DHT22;23794;48.234;8.344;2022-07-29T06:46:20;17.90;99.90
37972;DHT22;23794;48.234;8.344;2022-07-29T06:48:49;17.90;99.90
37972;DHT22;23794;48.234;8.344;2022-07-29T06:51:16;18.00;99.90
37972;DHT22;23794;48.234;8.344;2022-07-29T06:53:51;18.20;99.90
37972;DHT22;23794;48.234;8.344;2022-07-29T06:56:26;18.30;99.90
37972;DHT22;23794;48.234;8.344;2022-07-29T06:58:54;18.30;99.90
37972;DHT22;23794;48.234;8.344;2022-07-29T07:01:21;18.30;99.90
37972;DHT22;23794;48.234;8.344;2022-07-29T07:03:48;18.30;99.90
37972;DHT22;23794;48.234;8.344;2022-07-29T07:06:15;18.50;99.90
37972;DHT22;23794;48.234;8.344;2022-07-29T07:08:42;18.70;99.90
37972;DHT22;23794;48.234;8.344;2022-07-29T07:11:10;19.00;99.90
37972;DHT22;23794;48.234;8.344;2022-07-29T07:13:41;19.20;99.90
37972;DHT22;23794;48.234;8.344;2022-07-29T07:16:11;19.30;99.90
37972;DHT22;23794;48.234;8.344;2022-07-29T07:18:42;19.40;99.90
37972;DHT22;23794;48.234;8.344;2022-07-29T07:21:12;19.50;99.90
37972;DHT22;23794;48.234;8.344;2022-07-29T07:23:45;19.60;99.90
37972;DHT22;23794;48.234;8.344;2022-07-29T07:26:12;19.70;99.90
37972;DHT22;23794;48.234;8.344;2022-07-29T07:28:39;19.80;99.90
37972;DHT22;23794;48.234;8.344;2022-07-29T07:31:06;19.90;99.90
37972;DHT22;23794;48.234;8.344;2022-07-29T07:33:33;20.00;99.90
37972;DHT22;23794;48.234;8.344;2022-07-29T07:36:00;20.20;99.90
37972;DHT22;23794;48.234;8.344;2022-07-29T07:38:29;20.20;99.90
37972;DHT22;23794;48.234;8.344;2022-07-29T07:40:56;20.10;99.90
37972;DHT22;23794;48.234;8.344;2022-07-29T07:43:24;20.00;99.90
37972;DHT22;23794;48.234;8.344;2022-07-29T07:45:51;19.90;99.90
37972;DHT22;23794;48.234;8.344;2022-07-29T07:48:18;20.00;99.90
37972;DHT22;23794;48.234;8.344;2022-07-29T07:50:45;20.20;99.90
37972;DHT22;23794;48.234;8.344;2022-07-29T07:53:12;20.50;99.90
37972;DHT22;23794;48.234;8.344;2022-07-29T07:55:48;20.80;99.90
37972;DHT22;23794;48.234;8.344;2022-07-29T07:58:35;21.00;99.90
37972;DHT22;23794;48.234;8.344;2022-07-29T08:01:05;21.10;99.90
37972;DHT22;23794;48.234;8.344;2022-07-29T08:03:32;21.30;99.90
37972;DHT22;23794;48.234;8.344;2022-07-29T08:05:59;21.70;99.90
37972;DHT22;23794;48.234;8.344;2022-07-29T08:08:29;22.00;99.90
37972;DHT22;23794;48.234;8.344;2022-07-29T08:10:56;22.20;99.90
37972;DHT22;23794;48.234;8.344;2022-07-29T08:13:24;22.40;99.90
37972;DHT22;23794;48.234;8.344;2022-07-29T08:15:52;22.70;99.90
37972;DHT22;23794;48.234;8.344;2022-07-29T08:18:27;22.70;99.90
37972;DHT22;23794;48.234;8.344;2022-07-29T08:20:54;22.80;99.90
37972;DHT22;23794;48.234;8.344;2022-07-29T08:23:21;22.90;99.90
37972;DHT22;23794;48.234;8.344;2022-07-29T08:25:54;23.00;99.90
37972;DHT22;23794;48.234;8.344;2022-07-29T08:28:20;23.00;99.90
37972;DHT22;23794;48.234;8.344;2022-07-29T08:30:52;23.00;99.90
37972;DHT22;23794;48.234;8.344;2022-07-29T08:33:18;23.10;99.90
37972;DHT22;23794;48.234;8.344;2022-07-29T08:35:45;23.20;99.90
37972;DHT22;23794;48.234;8.344;2022-07-29T08:38:12;23.30;99.90
37972;DHT22;23794;48.234;8.344;2022-07-29T08:40:42;23.50;99.60
37972;DHT22;23794;48.234;8.344;2022-07-29T08:43:08;23.50;99.30
37972;DHT22;23794;48.234;8.344;2022-07-29T08:45:46;23.50;98.90
37972;DHT22;23794;48.234;8.344;2022-07-29T08:48:14;23.40;99.60
37972;DHT22;23794;48.234;8.344;2022-07-29T08:50:42;23.40;99.50
37972;DHT22;23794;48.234;8.344;2022-07-29T08:53:15;23.40;99.10
37972;DHT22;23794;48.234;8.344;2022-07-29T08:55:53;23.50;98.40
37972;DHT22;23794;48.234;8.344;2022-07-29T08:58:21;23.80;98.80
37972;DHT22;23794;48.234;8.344;2022-07-29T09:00:51;24.30;98.70
37972;DHT22;23794;48.234;8.344;2022-07-29T09:03:22;24.50;96.90
37972;DHT22;23794;48.234;8.344;2022-07-29T09:05:49;24.60;97.50
37972;DHT22;23794;48.234;8.344;2022-07-29T09:08:17;24.70;96.50
37972;DHT22;23794;48.234;8.344;2022-07-29T09:10:44;24.50;96.80
37972;DHT22;23794;48.234;8.344;2022-07-29T09:13:12;24.50;95.80
37972;DHT22;23794;48.234;8.344;2022-07-29T09:15:38;24.30;96.30
37972;DHT22;23794;48.234;8.344;2022-07-29T09:18:05;24.20;95.90
37972;DHT22;23794;48.234;8.344;2022-07-29T09:20:50;24.00;95.80
37972;DHT22;23794;48.234;8.344;2022-07-29T09:23:36;23.90;96.10
37972;DHT22;23794;48.234;8.344;2022-07-29T09:26:04;23.80;96.20
37972;DHT22;23794;48.234;8.344;2022-07-29T09:28:32;24.00;97.40
37972;DHT22;23794;48.234;8.344;2022-07-29T09:30:59;24.10;95.50
37972;DHT22;23794;48.234;8.344;2022-07-29T09:33:32;24.00;96.40
37972;DHT22;23794;48.234;8.344;2022-07-29T09:36:06;24.00;95.90
37972;DHT22;23794;48.234;8.344;2022-07-29T09:38:36;24.10;95.90
37972;DHT22;23794;48.234;8.344;2022-07-29T09:41:06;23.90;96.20
37972;DHT22;23794;48.234;8.344;2022-07-29T09:43:37;23.90;95.40
37972;DHT22;23794;48.234;8.344;2022-07-29T09:46:11;23.90;96.10
37972;DHT22;23794;48.234;8.344;2022-07-29T09:48:39;23.80;96.10
37972;DHT22;23794;48.234;8.344;2022-07-29T09:51:16;23.90;96.70
37972;DHT22;23794;48.234;8.344;2022-07-29T09:53:47;23.90;95.70
37972;DHT22;23794;48.234;8.344;2022-07-29T09:56:14;23.90;95.60
37972;DHT22;23794;48.234;8.344;2022-07-29T09:58:41;24.10;95.30
37972;DHT22;23794;48.234;8.344;2022-07-29T10:01:08;24.30;95.00
37972;DHT22;23794;48.234;8.344;2022-07-29T10:03:51;24.40;95.00
37972;DHT22;23794;48.234;8.344;2022-07-29T10:06:18;24.60;94.50
37972;DHT22;23794;48.234;8.344;2022-07-29T10:08:45;24.60;94.60
37972;DHT22;23794;48.234;8.344;2022-07-29T10:11:14;24.70;94.50
37972;DHT22;23794;48.234;8.344;2022-07-29T10:13:45;24.80;94.70
37972;DHT22;23794;48.234;8.344;2022-07-29T10:16:13;25.00;94.10
37972;DHT22;23794;48.234;8.344;2022-07-29T10:18:41;25.10;94.70
37972;DHT22;23794;48.234;8.344;2022-07-29T10:21:08;25.20;94.30
37972;DHT22;23794;48.234;8.344;2022-07-29T10:23:48;25.20;94.00
37972;DHT22;23794;48.234;8.344;2022-07-29T10:26:15;24.80;93.10
37972;DHT22;23794;48.234;8.344;2022-07-29T10:28:44;24.50;93.50
37972;DHT22;23794;48.234;8.344;2022-07-29T10:31:13;24.20;94.10
37972;DHT22;23794;48.234;8.344;2022-07-29T10:33:58;24.10;93.90
37972;DHT22;23794;48.234;8.344;2022-07-29T10:44:17;24.40;94.10
37972;DHT22;23794;48.234;8.344;2022-07-29T10:46:50;24.40;94.80
37972;DHT22;23794;48.234;8.344;2022-07-29T10:49:18;24.60;95.30
37972;DHT22;23794;48.234;8.344;2022-07-29T10:54:18;24.70;94.00
37972;DHT22;23794;48.234;8.344;2022-07-29T10:56:47;24.70;94.30
37972;DHT22;23794;48.234;8.344;2022-07-29T11:01:50;25.20;94.30
37972;DHT22;23794;48.234;8.344;2022-07-29T11:07:09;25.00;94.00
37972;DHT22;23794;48.234;8.344;2022-07-29T11:09:35;24.90;93.20
37972;DHT22;23794;48.234;8.344;2022-07-29T11:12:50;24.70;93.20
37972;DHT22;23794;48.234;8.344;2022-07-29T11:17:19;25.00;93.70
37972;DHT22;23794;48.234;8.344;2022-07-29T11:19:46;25.10;93.20
37972;DHT22;23794;48.234;8.344;2022-07-29T11:22:33;25.20;92.90
37972;DHT22;23794;48.234;8.344;2022-07-29T11:25:13;25.20;93.10
37972;DHT22;23794;48.234;8.344;2022-07-29T11:27:42;25.20;93.20
37972;DHT22;23794;48.234;8.344;2022-07-29T11:30:14;25.40;92.40
37972;DHT22;23794;48.234;8.344;2022-07-29T11:32:41;25.20;92.60
37972;DHT22;23794;48.234;8.344;2022-07-29T11:35:15;25.40;92.00
37972;DHT22;23794;48.234;8.344;2022-07-29T11:37:45;25.40;91.40
37972;DHT22;23794;48.234;8.344;2022-07-29T11:40:23;25.50;91.70
37972;DHT22;23794;48.234;8.344;2022-07-29T11:42:50;25.50;91.20
37972;DHT22;23794;48.234;8.344;2022-07-29T11:45:19;25.60;90.70
37972;DHT22;23794;48.234;8.344;2022-07-29T11:48:06;25.60;90.90
37972;DHT22;23794;48.234;8.344;2022-07-29T11:50:54;25.70;90.80
37972;DHT22;23794;48.234;8.344;2022-07-29T11:53:23;25.90;89.10
37972;DHT22;23794;48.234;8.344;2022-07-29T11:55:54;25.80;87.50
37972;DHT22;23794;48.234;8.344;2022-07-29T11:58:21;26.00;89.20
37972;DHT22;23794;48.234;8.344;2022-07-29T12:00:52;26.00;87.80
37972;DHT22;23794;48.234;8.344;2022-07-29T12:03:25;25.80;88.30
37972;DHT22;23794;48.234;8.344;2022-07-29T12:06:11;25.60;89.00
37972;DHT22;23794;48.234;8.344;2022-07-29T12:08:41;25.60;89.50
37972;DHT22;23794;48.234;8.344;2022-07-29T12:11:20;25.60;89.50
37972;DHT22;23794;48.234;8.344;2022-07-29T12:13:50;25.60;89.70
37972;DHT22;23794;48.234;8.344;2022-07-29T12:16:17;25.50;88.60
37972;DHT22;23794;48.234;8.344;2022-07-29T12:19:00;25.40;89.30
37972;DHT22;23794;48.234;8.344;2022-07-29T12:21:50;25.20;88.80
37972;DHT22;23794;48.234;8.344;2022-07-29T12:24:22;25.20;90.40
37972;DHT22;23794;48.234;8.344;2022-07-29T12:26:53;25.40;89.70
37972;DHT22;23794;48.234;8.344;2022-07-29T12:29:21;25.40;89.30
37972;DHT22;23794;48.234;8.344;2022-07-29T12:32:00;25.40;87.60
37972;DHT22;23794;48.234;8.344;2022-07-29T12:34:28;25.00;89.30
37972;DHT22;23794;48.234;8.344;2022-07-29T12:36:59;24.90;90.00
37972;DHT22;23794;48.234;8.344;2022-07-29T12:39:27;24.70;89.10
37972;DHT22;23794;48.234;8.344;2022-07-29T12:41:54;24.70;89.60
37972;DHT22;23794;48.234;8.344;2022-07-29T12:44:52;24.70;90.10
37972;DHT22;23794;48.234;8.344;2022-07-29T12:47:18;24.70;89.80
37972;DHT22;23794;48.234;8.344;2022-07-29T12:49:46;25.00;90.10
37972;DHT22;23794;48.234;8.344;2022-07-29T12:52:23;24.90;88.90
37972;DHT22;23794;48.234;8.344;2022-07-29T12:54:50;24.80;88.70
37972;DHT22;23794;48.234;8.344;2022-07-29T12:57:17;24.80;89.10
37972;DHT22;23794;48.234;8.344;2022-07-29T12:59:58;24.90;88.20
37972;DHT22;23794;48.234;8.344;2022-07-29T13:02:25;24.80;88.10
37972;DHT22;23794;48.234;8.344;2022-07-29T13:04:59;24.70;88.30
37972;DHT22;23794;48.234;8.344;2022-07-29T13:07:27;24.60;88.30
37972;DHT22;23794;48.234;8.344;2022-07-29T13:10:16;24.50;89.20
37972;DHT22;23794;48.234;8.344;2022-07-29T13:15:36;24.40;89.20
37972;DHT22;23794;48.234;8.344;2022-07-29T13:18:04;24.40;88.80
37972;DHT22;23794;48.234;8.344;2022-07-29T13:20:31;24.40;89.30
37972;DHT22;23794;48.234;8.344;2022-07-29T13:22:59;24.40;90.40
37972;DHT22;23794;48.234;8.344;2022-07-29T13:25:30;24.40;89.30
37972;DHT22;23794;48.234;8.344;2022-07-29T13:27:58;24.40;88.90
37972;DHT22;23794;48.234;8.344;2022-07-29T13:30:25;24.20;89.30
37972;DHT22;23794;48.234;8.344;2022-07-29T13:32:52;24.20;89.60
37972;DHT22;23794;48.234;8.344;2022-07-29T13:35:19;24.30;89.40
37972;DHT22;23794;48.234;8.344;2022-07-29T13:37:47;24.30;89.30
37972;DHT22;23794;48.234;8.344;2022-07-29T13:40:16;24.40;89.40
37972;DHT22;23794;48.234;8.344;2022-07-29T13:43:10;24.40;89.50
37972;DHT22;23794;48.234;8.344;2022-07-29T13:45:37;24.50;89.20
37972;DHT22;23794;48.234;8.344;2022-07-29T13:48:04;24.60;89.70
37972;DHT22;23794;48.234;8.344;2022-07-29T13:50:32;24.70;88.90
37972;DHT22;23794;48.234;8.344;2022-07-29T13:52:59;24.70;87.90
37972;DHT22;23794;48.234;8.344;2022-07-29T13:55:26;24.70;88.30
37972;DHT22;23794;48.234;8.344;2022-07-29T13:57:53;24.70;88.20
37972;DHT22;23794;48.234;8.344;2022-07-29T14:00:20;24.70;87.30
37972;DHT22;23794;48.234;8.344;2022-07-29T14:02:47;24.50;87.20
37972;DHT22;23794;48.234;8.344;2022-07-29T14:05:14;24.30;88.20
37972;DHT22;23794;48.234;8.344;2022-07-29T14:07:41;24.30;88.00
37972;DHT22;23794;48.234;8.344;2022-07-29T14:10:08;24.20;89.60
37972;DHT22;23794;48.234;8.344;2022-07-29T14:12:35;24.20;88.30
37972;DHT22;23794;48.234;8.344;2022-07-29T14:15:02;24.00;88.80
37972;DHT22;23794;48.234;8.344;2022-07-29T14:17:29;24.10;87.90
37972;DHT22;23794;48.234;8.344;2022-07-29T14:19:56;24.00;88.00
37972;DHT22;23794;48.234;8.344;2022-07-29T14:22:23;23.90;87.60
37972;DHT22;23794;48.234;8.344;2022-07-29T14:24:54;23.80;88.10
37972;DHT22;23794;48.234;8.344;2022-07-29T14:27:22;23.80;88.30
37972;DHT22;23794;48.234;8.344;2022-07-29T14:30:04;23.80;88.50
37972;DHT22;23794;48.234;8.344;2022-07-29T14:32:31;23.90;87.40
37972;DHT22;23794;48.234;8.344;2022-07-29T14:34:58;23.90;88.40
37972;DHT22;23794;48.234;8.344;2022-07-29T14:37:25;24.00;87.60
37972;DHT22;23794;48.234;8.344;2022-07-29T14:39:53;24.00;88.20
37972;DHT22;23794;48.234;8.344;2022-07-29T14:42:21;23.90;88.30
37972;DHT22;23794;48.234;8.344;2022-07-29T14:44:47;23.80;88.10
37972;DHT22;23794;48.234;8.344;2022-07-29T14:47:15;23.90;88.90
37972;DHT22;23794;48.234;8.344;2022-07-29T14:49:42;24.00;87.40
37972;DHT22;23794;48.234;8.344;2022-07-29T14:52:09;24.00;87.90
37972;DHT22;23794;48.234;8.344;2022-07-29T14:54:36;24.10;87.60
37972;DHT22;23794;48.234;8.344;2022-07-29T14:57:03;24.10;87.10
37972;DHT22;23794;48.234;8.344;2022-07-29T14:59:30;24.10;87.50
37972;DHT22;23794;48.234;8.344;2022-07-29T15:01:57;24.00;86.60
37972;DHT22;23794;48.234;8.344;2022-07-29T15:04:24;23.80;87.70
37972;DHT22;23794;48.234;8.344;2022-07-29T15:06:51;23.70;88.10
37972;DHT22;23794;48.234;8.344;2022-07-29T15:09:18;23.70;87.70
37972;DHT22;23794;48.234;8.344;2022-07-29T15:11:45;23.70;88.20
37972;DHT22;23794;48.234;8.344;2022-07-29T15:14:12;23.80;88.40
37972;DHT22;23794;48.234;8.344;2022-07-29T15:16:39;23.70;89.10
37972;DHT22;23794;48.234;8.344;2022-07-29T15:19:12;23.60;88.70
37972;DHT22;23794;48.234;8.344;2022-07-29T15:21:39;23.50;89.30
37972;DHT22;23794;48.234;8.344;2022-07-29T15:24:14;23.60;89.10
37972;DHT22;23794;48.234;8.344;2022-07-29T15:26:40;23.90;89.50
37972;DHT22;23794;48.234;8.344;2022-07-29T15:29:09;24.10;88.30
37972;DHT22;23794;48.234;8.344;2022-07-29T15:31:39;24.10;88.60
37972;DHT22;23794;48.234;8.344;2022-07-29T15:34:07;24.20;88.80
37972;DHT22;23794;48.234;8.344;2022-07-29T15:36:34;24.20;89.10
37972;DHT22;23794;48.234;8.344;2022-07-29T15:39:18;24.30;88.30
37972;DHT22;23794;48.234;8.344;2022-07-29T15:41:45;24.60;88.50
37972;DHT22;23794;48.234;8.344;2022-07-29T15:44:12;24.20;86.70
37972;DHT22;23794;48.234;8.344;2022-07-29T15:46:39;23.90;88.00
37972;DHT22;23794;48.234;8.344;2022-07-29T15:49:25;23.90;88.00
37972;DHT22;23794;48.234;8.344;2022-07-29T15:52:18;23.80;88.60
37972;DHT22;23794;48.234;8.344;2022-07-29T15:54:52;23.80;89.50
37972;DHT22;23794;48.234;8.344;2022-07-29T15:57:19;23.70;89.60
37972;DHT22;23794;48.234;8.344;2022-07-29T15:59:47;23.60;90.10
37972;DHT22;23794;48.234;8.344;2022-07-29T16:02:13;23.60;90.40
37972;DHT22;23794;48.234;8.344;2022-07-29T16:04:41;23.60;90.30
37972;DHT22;23794;48.234;8.344;2022-07-29T16:07:08;23.60;90.50
37972;DHT22;23794;48.234;8.344;2022-07-29T16:09:35;23.70;90.80
37972;DHT22;23794;48.234;8.344;2022-07-29T16:12:02;23.80;90.30
37972;DHT22;23794;48.234;8.344;2022-07-29T16:14:40;23.90;90.50
37972;DHT22;23794;48.234;8.344;2022-07-29T16:17:08;23.80;90.40
37972;DHT22;23794;48.234;8.344;2022-07-29T16:19:41;23.60;90.40
37972;DHT22;23794;48.234;8.344;2022-07-29T16:22:10;23.60;90.30
37972;DHT22;23794;48.234;8.344;2022-07-29T16:24:37;23.50;89.90
37972;DHT22;23794;48.234;8.344;2022-07-29T16:27:04;23.50;89.90
37972;DHT22;23794;48.234;8.344;2022-07-29T16:29:32;23.40;89.10